sensor_id;sensor_type;location;lat;lon;timestamp;P1;durP1;ratioP1;P2;durP2;ratioP2
30149;SDS011;16962;48.646;9.026;2023-08-31T00:02:39;6.40;;;4.60;;
30149;SDS011;16962;48.646;9.026;2023-08-31T00:05:41;5.43;;;4.32;;
30149;SDS011;16962;48.646;9.026;2023-08-31T00:08:30;7.03;;;4.82;;
30149;SDS011;16962;48.646;9.026;2023-08-31T00:11:17;10.65;;;5.22;;
30149;SDS011;16962;48.646;9.026;2023-08-31T00:14:05;8.60;;;4.43;;
30149;SDS011;16962;48.646;9.026;2023-08-31T00:17:15;8.05;;;4.45;;
30149;SDS011;16962;48.646;9.026;2023-08-31T00:20:05;6.95;;;5.07;;
30149;SDS011;16962;48.646;9.026;2023-08-31T00:22:54;5.97;;;5.15;;
30149;SDS011;16962;48.646;9.026;2023-08-31T00:25:42;8.07;;;4.38;;
30149;SDS011;16962;48.646;9.026;2023-08-31T00:28:30;5.95;;;4.57;;
30149;SDS011;16962;48.646;9.026;2023-08-31T00:31:18;10.73;;;5.70;;
30149;SDS011;16962;48.646;9.026;2023-08-31T00:34:06;7.93;;;5.10;;
30149;SDS011;16962;48.646;9.026;2023-08-31T00:36:53;12.13;;;5.15;;
30149;SDS011;16962;48.646;9.026;2023-08-31T00:39:41;11.65;;;5.22;;
30149;SDS011;16962;48.646;9.026;2023-08-31T00:42:29;12.32;;;4.95;;
30149;SDS011;16962;48.646;9.026;2023-08-31T00:45:17;7.65;;;4.97;;
30149;SDS011;16962;48.646;9.026;2023-08-31T00:48:05;7.72;;;4.72;;
30149;SDS011;16962;48.646;9.026;2023-08-31T00:50:55;5.68;;;4.65;;
30149;SDS011;16962;48.646;9.026;2023-08-31T00:53:43;10.52;;;5.03;;
30149;SDS011;16962;48.646;9.026;2023-08-31T00:56:30;9.27;;;4.50;;
30149;SDS011;16962;48.646;9.026;2023-08-31T00:59:17;8.07;;;5.25;;
30149;SDS011;16962;48.646;9.026;2023-08-31T01:02:15;8.05;;;4.75;;
30149;SDS011;16962;48.646;9.026;2023-08-31T01:08:45;8.57;;;4.47;;
30149;SDS011;16962;48.646;9.026;2023-08-31T01:15:14;7.95;;;4.97;;
30149;SDS011;16962;48.646;9.026;2023-08-31T01:17:57;10.52;;;5.30;;
30149;SDS011;16962;48.646;9.026;2023-08-31T01:23:53;11.02;;;5.03;;
30149;SDS011;16962;48.646;9.026;2023-08-31T01:26:41;6.60;;;5.28;;
30149;SDS011;16962;48.646;9.026;2023-08-31T01:29:31;7.93;;;5.22;;
30149;SDS011;16962;48.646;9.026;2023-08-31T01:32:19;7.90;;;5.50;;
30149;SDS011;16962;48.646;9.026;2023-08-31T01:35:06;8.68;;;5.75;;
30149;SDS011;16962;48.646;9.026;2023-08-31T01:37:56;8.05;;;6.32;;
30149;SDS011;16962;48.646;9.026;2023-08-31T01:40:54;14.10;;;5.93;;
30149;SDS011;16962;48.646;9.026;2023-08-31T01:43:57;7.55;;;5.65;;
30149;SDS011;16962;48.646;9.026;2023-08-31T01:46:46;10.02;;;6.25;;
30149;SDS011;16962;48.646;9.026;2023-08-31T01:49:37;13.27;;;7.25;;
30149;SDS011;16962;48.646;9.026;2023-08-31T01:52:27;10.25;;;7.43;;
30149;SDS011;16962;48.646;9.026;2023-08-31T01:55:14;11.70;;;7.05;;
30149;SDS011;16962;48.646;9.026;2023-08-31T01:58:02;10.85;;;7.20;;
30149;SDS011;16962;48.646;9.026;2023-08-31T02:00:50;13.15;;;7.53;;
30149;SDS011;16962;48.646;9.026;2023-08-31T02:03:37;10.57;;;7.78;;
30149;SDS011;16962;48.646;9.026;2023-08-31T02:06:24;11.00;;;8.40;;
30149;SDS011;16962;48.646;9.026;2023-08-31T02:09:13;17.33;;;8.75;;
30149;SDS011;16962;48.646;9.026;2023-08-31T02:12:00;15.45;;;9.18;;
30149;SDS011;16962;48.646;9.026;2023-08-31T02:14:48;11.90;;;8.43;;
30149;SDS011;16962;48.646;9.026;2023-08-31T02:17:35;11.98;;;8.80;;
30149;SDS011;16962;48.646;9.026;2023-08-31T02:20:22;13.52;;;9.27;;
30149;SDS011;16962;48.646;9.026;2023-08-31T02:23:10;16.27;;;9.32;;
30149;SDS011;16962;48.646;9.026;2023-08-31T02:25:59;16.40;;;9.98;;
30149;SDS011;16962;48.646;9.026;2023-08-31T02:28:47;17.02;;;10.52;;
30149;SDS011;16962;48.646;9.026;2023-08-31T02:31:37;14.63;;;10.43;;
30149;SDS011;16962;48.646;9.026;2023-08-31T02:34:24;15.75;;;10.43;;
30149;SDS011;16962;48.646;9.026;2023-08-31T02:37:11;17.23;;;10.70;;
30149;SDS011;16962;48.646;9.026;2023-08-31T02:39:59;16.50;;;10.70;;
30149;SDS011;16962;48.646;9.026;2023-08-31T02:42:50;16.02;;;10.57;;
30149;SDS011;16962;48.646;9.026;2023-08-31T02:45:39;17.98;;;11.10;;
30149;SDS011;16962;48.646;9.026;2023-08-31T02:48:26;17.02;;;11.48;;
30149;SDS011;16962;48.646;9.026;2023-08-31T02:51:15;21.42;;;11.57;;
30149;SDS011;16962;48.646;9.026;2023-08-31T02:54:02;18.80;;;10.93;;
30149;SDS011;16962;48.646;9.026;2023-08-31T02:56:50;19.45;;;11.90;;
30149;SDS011;16962;48.646;9.026;2023-08-31T02:59:37;21.20;;;11.63;;
30149;SDS011;16962;48.646;9.026;2023-08-31T03:02:25;20.55;;;11.68;;
30149;SDS011;16962;48.646;9.026;2023-08-31T03:05:12;21.98;;;11.95;;
30149;SDS011;16962;48.646;9.026;2023-08-31T03:07:59;22.58;;;11.73;;
30149;SDS011;16962;48.646;9.026;2023-08-31T03:10:47;16.17;;;10.73;;
30149;SDS011;16962;48.646;9.026;2023-08-31T03:13:34;23.75;;;12.02;;
30149;SDS011;16962;48.646;9.026;2023-08-31T03:16:21;18.45;;;11.48;;
30149;SDS011;16962;48.646;9.026;2023-08-31T03:19:09;18.17;;;12.80;;
30149;SDS011;16962;48.646;9.026;2023-08-31T03:21:56;22.80;;;13.20;;
30149;SDS011;16962;48.646;9.026;2023-08-31T03:24:43;27.52;;;12.88;;
30149;SDS011;16962;48.646;9.026;2023-08-31T03:27:31;24.65;;;13.98;;
30149;SDS011;16962;48.646;9.026;2023-08-31T03:30:18;22.08;;;12.85;;
30149;SDS011;16962;48.646;9.026;2023-08-31T03:33:06;25.38;;;13.75;;
30149;SDS011;16962;48.646;9.026;2023-08-31T03:35:53;23.83;;;13.98;;
30149;SDS011;16962;48.646;9.026;2023-08-31T03:38:40;20.25;;;12.88;;
30149;SDS011;16962;48.646;9.026;2023-08-31T03:41:30;22.42;;;13.50;;
30149;SDS011;16962;48.646;9.026;2023-08-31T03:44:22;19.67;;;14.00;;
30149;SDS011;16962;48.646;9.026;2023-08-31T03:47:09;29.17;;;14.35;;
30149;SDS011;16962;48.646;9.026;2023-08-31T03:49:56;20.13;;;13.88;;
30149;SDS011;16962;48.646;9.026;2023-08-31T03:52:44;26.73;;;14.55;;
30149;SDS011;16962;48.646;9.026;2023-08-31T03:55:35;20.08;;;13.48;;
30149;SDS011;16962;48.646;9.026;2023-08-31T03:58:24;20.67;;;12.75;;
30149;SDS011;16962;48.646;9.026;2023-08-31T04:01:12;20.52;;;13.73;;
30149;SDS011;16962;48.646;9.026;2023-08-31T04:04:01;20.20;;;13.25;;
30149;SDS011;16962;48.646;9.026;2023-08-31T04:06:48;18.60;;;13.43;;
30149;SDS011;16962;48.646;9.026;2023-08-31T04:09:36;19.40;;;13.70;;
30149;SDS011;16962;48.646;9.026;2023-08-31T04:12:25;25.48;;;14.15;;
30149;SDS011;16962;48.646;9.026;2023-08-31T04:15:13;22.13;;;14.20;;
30149;SDS011;16962;48.646;9.026;2023-08-31T04:18:00;24.63;;;13.07;;
30149;SDS011;16962;48.646;9.026;2023-08-31T04:20:49;25.67;;;13.52;;
30149;SDS011;16962;48.646;9.026;2023-08-31T04:23:38;28.75;;;14.05;;
30149;SDS011;16962;48.646;9.026;2023-08-31T04:26:25;23.17;;;13.65;;
30149;SDS011;16962;48.646;9.026;2023-08-31T04:29:13;19.77;;;12.85;;
30149;SDS011;16962;48.646;9.026;2023-08-31T04:32:03;19.67;;;13.80;;
30149;SDS011;16962;48.646;9.026;2023-08-31T04:34:51;25.70;;;12.98;;
30149;SDS011;16962;48.646;9.026;2023-08-31T04:37:42;22.10;;;12.55;;
30149;SDS011;16962;48.646;9.026;2023-08-31T04:40:31;24.92;;;12.05;;
30149;SDS011;16962;48.646;9.026;2023-08-31T04:43:20;28.13;;;13.30;;
30149;SDS011;16962;48.646;9.026;2023-08-31T04:46:09;19.42;;;12.93;;
30149;SDS011;16962;48.646;9.026;2023-08-31T04:48:59;21.73;;;13.05;;
30149;SDS011;16962;48.646;9.026;2023-08-31T04:51:47;20.05;;;12.10;;
30149;SDS011;16962;48.646;9.026;2023-08-31T04:54:36;22.13;;;12.82;;
30149;SDS011;16962;48.646;9.026;2023-08-31T04:57:24;21.88;;;12.63;;
30149;SDS011;16962;48.646;9.026;2023-08-31T05:00:13;20.08;;;13.20;;
30149;SDS011;16962;48.646;9.026;2023-08-31T05:03:01;19.88;;;12.82;;
30149;SDS011;16962;48.646;9.026;2023-08-31T05:05:57;22.35;;;13.27;;
30149;SDS011;16962;48.646;9.026;2023-08-31T05:08:53;27.15;;;13.15;;
30149;SDS011;16962;48.646;9.026;2023-08-31T05:11:41;19.80;;;13.32;;
30149;SDS011;16962;48.646;9.026;2023-08-31T05:14:28;21.80;;;12.68;;
30149;SDS011;16962;48.646;9.026;2023-08-31T05:17:21;21.20;;;12.75;;
30149;SDS011;16962;48.646;9.026;2023-08-31T05:20:27;22.35;;;12.90;;
30149;SDS011;16962;48.646;9.026;2023-08-31T05:24:18;21.58;;;12.73;;
30149;SDS011;16962;48.646;9.026;2023-08-31T05:27:28;24.08;;;13.40;;
30149;SDS011;16962;48.646;9.026;2023-08-31T05:30:17;21.92;;;13.48;;
30149;SDS011;16962;48.646;9.026;2023-08-31T05:33:27;24.13;;;13.60;;
30149;SDS011;16962;48.646;9.026;2023-08-31T05:36:21;20.83;;;13.20;;
30149;SDS011;16962;48.646;9.026;2023-08-31T05:39:08;21.20;;;13.60;;
30149;SDS011;16962;48.646;9.026;2023-08-31T05:41:59;19.52;;;12.95;;
30149;SDS011;16962;48.646;9.026;2023-08-31T05:47:40;21.60;;;12.38;;
30149;SDS011;16962;48.646;9.026;2023-08-31T05:50:31;21.10;;;13.50;;
30149;SDS011;16962;48.646;9.026;2023-08-31T05:53:19;20.45;;;12.70;;
30149;SDS011;16962;48.646;9.026;2023-08-31T05:56:10;23.35;;;12.93;;
30149;SDS011;16962;48.646;9.026;2023-08-31T05:58:59;28.13;;;11.88;;
30149;SDS011;16962;48.646;9.026;2023-08-31T06:01:49;18.05;;;11.20;;
30149;SDS011;16962;48.646;9.026;2023-08-31T06:04:41;19.00;;;11.52;;
30149;SDS011;16962;48.646;9.026;2023-08-31T07:08:27;9.15;;;3.90;;
30149;SDS011;16962;48.646;9.026;2023-08-31T07:17:03;9.32;;;3.20;;
30149;SDS011;16962;48.646;9.026;2023-08-31T07:20:41;5.45;;;2.85;;
30149;SDS011;16962;48.646;9.026;2023-08-31T07:23:29;9.10;;;2.97;;
30149;SDS011;16962;48.646;9.026;2023-08-31T07:26:16;8.65;;;2.97;;
30149;SDS011;16962;48.646;9.026;2023-08-31T07:29:04;7.70;;;3.08;;
30149;SDS011;16962;48.646;9.026;2023-08-31T07:31:56;9.43;;;2.60;;
30149;SDS011;16962;48.646;9.026;2023-08-31T07:34:44;4.50;;;2.55;;
30149;SDS011;16962;48.646;9.026;2023-08-31T07:38:27;7.38;;;2.95;;
30149;SDS011;16962;48.646;9.026;2023-08-31T07:41:34;5.60;;;2.65;;
30149;SDS011;16962;48.646;9.026;2023-08-31T07:44:24;6.85;;;2.83;;
30149;SDS011;16962;48.646;9.026;2023-08-31T07:47:14;5.22;;;2.72;;
30149;SDS011;16962;48.646;9.026;2023-08-31T07:50:04;6.03;;;2.47;;
30149;SDS011;16962;48.646;9.026;2023-08-31T07:53:23;4.95;;;2.40;;
30149;SDS011;16962;48.646;9.026;2023-08-31T07:56:13;5.53;;;2.65;;
30149;SDS011;16962;48.646;9.026;2023-08-31T07:59:11;3.53;;;2.47;;
30149;SDS011;16962;48.646;9.026;2023-08-31T08:02:00;6.32;;;2.47;;
30149;SDS011;16962;48.646;9.026;2023-08-31T08:05:16;7.95;;;3.33;;
30149;SDS011;16962;48.646;9.026;2023-08-31T08:08:14;5.50;;;2.05;;
30149;SDS011;16962;48.646;9.026;2023-08-31T08:11:16;10.20;;;2.85;;
30149;SDS011;16962;48.646;9.026;2023-08-31T08:14:37;6.65;;;2.40;;
30149;SDS011;16962;48.646;9.026;2023-08-31T08:18:25;4.63;;;2.17;;
30149;SDS011;16962;48.646;9.026;2023-08-31T08:21:35;4.65;;;1.70;;
30149;SDS011;16962;48.646;9.026;2023-08-31T08:24:38;5.45;;;2.58;;
30149;SDS011;16962;48.646;9.026;2023-08-31T08:27:57;6.10;;;2.20;;
30149;SDS011;16962;48.646;9.026;2023-08-31T08:30:44;5.43;;;2.15;;
30149;SDS011;16962;48.646;9.026;2023-08-31T08:33:38;5.43;;;2.25;;
30149;SDS011;16962;48.646;9.026;2023-08-31T08:40:21;5.65;;;2.00;;
30149;SDS011;16962;48.646;9.026;2023-08-31T08:43:30;5.55;;;1.98;;
30149;SDS011;16962;48.646;9.026;2023-08-31T08:46:23;4.88;;;1.73;;
30149;SDS011;16962;48.646;9.026;2023-08-31T08:49:19;6.88;;;2.03;;
30149;SDS011;16962;48.646;9.026;2023-08-31T08:52:10;3.83;;;1.75;;
30149;SDS011;16962;48.646;9.026;2023-08-31T08:55:20;9.35;;;2.10;;
30149;SDS011;16962;48.646;9.026;2023-08-31T08:58:10;2.72;;;1.80;;
30149;SDS011;16962;48.646;9.026;2023-08-31T09:00:59;3.70;;;1.98;;
30149;SDS011;16962;48.646;9.026;2023-08-31T09:03:49;8.10;;;2.28;;
30149;SDS011;16962;48.646;9.026;2023-08-31T09:06:36;5.80;;;2.08;;
30149;SDS011;16962;48.646;9.026;2023-08-31T09:09:29;9.13;;;2.67;;
30149;SDS011;16962;48.646;9.026;2023-08-31T09:12:25;6.50;;;1.88;;
30149;SDS011;16962;48.646;9.026;2023-08-31T09:15:17;4.10;;;1.90;;
30149;SDS011;16962;48.646;9.026;2023-08-31T09:18:51;7.28;;;2.20;;
30149;SDS011;16962;48.646;9.026;2023-08-31T09:22:34;4.32;;;2.10;;
30149;SDS011;16962;48.646;9.026;2023-08-31T09:26:12;5.35;;;1.88;;
30149;SDS011;16962;48.646;9.026;2023-08-31T09:29:16;7.55;;;2.15;;
30149;SDS011;16962;48.646;9.026;2023-08-31T09:32:08;8.77;;;2.40;;
30149;SDS011;16962;48.646;9.026;2023-08-31T09:50:29;4.53;;;1.85;;
30149;SDS011;16962;48.646;9.026;2023-08-31T10:04:52;7.30;;;2.22;;
30149;SDS011;16962;48.646;9.026;2023-08-31T10:36:12;5.47;;;2.28;;
30149;SDS011;16962;48.646;9.026;2023-08-31T10:39:05;3.63;;;1.90;;
30149;SDS011;16962;48.646;9.026;2023-08-31T10:42:03;7.43;;;2.28;;
30149;SDS011;16962;48.646;9.026;2023-08-31T10:44:50;8.05;;;2.45;;
30149;SDS011;16962;48.646;9.026;2023-08-31T10:47:38;6.95;;;2.10;;
30149;SDS011;16962;48.646;9.026;2023-08-31T10:50:33;5.82;;;2.30;;
30149;SDS011;16962;48.646;9.026;2023-08-31T10:53:31;7.63;;;2.38;;
30149;SDS011;16962;48.646;9.026;2023-08-31T10:56:30;8.38;;;2.25;;
30149;SDS011;16962;48.646;9.026;2023-08-31T10:59:20;6.40;;;2.17;;
30149;SDS011;16962;48.646;9.026;2023-08-31T11:02:10;4.30;;;2.25;;
30149;SDS011;16962;48.646;9.026;2023-08-31T11:05:17;6.55;;;2.47;;
30149;SDS011;16962;48.646;9.026;2023-08-31T11:08:06;6.63;;;2.50;;
30149;SDS011;16962;48.646;9.026;2023-08-31T11:10:54;6.35;;;2.20;;
30149;SDS011;16962;48.646;9.026;2023-08-31T11:13:41;5.72;;;2.20;;
30149;SDS011;16962;48.646;9.026;2023-08-31T11:16:29;6.78;;;2.22;;
30149;SDS011;16962;48.646;9.026;2023-08-31T11:19:19;4.45;;;2.28;;
30149;SDS011;16962;48.646;9.026;2023-08-31T11:22:31;7.45;;;2.22;;
30149;SDS011;16962;48.646;9.026;2023-08-31T11:29:18;7.25;;;2.53;;
30149;SDS011;16962;48.646;9.026;2023-08-31T11:32:24;6.75;;;2.20;;
30149;SDS011;16962;48.646;9.026;2023-08-31T11:35:11;5.30;;;2.08;;
30149;SDS011;16962;48.646;9.026;2023-08-31T11:37:59;8.35;;;2.47;;
30149;SDS011;16962;48.646;9.026;2023-08-31T11:40:47;4.78;;;1.92;;
30149;SDS011;16962;48.646;9.026;2023-08-31T11:43:36;8.27;;;2.22;;
30149;SDS011;16962;48.646;9.026;2023-08-31T11:46:27;5.22;;;2.05;;
30149;SDS011;16962;48.646;9.026;2023-08-31T11:49:14;6.55;;;2.20;;
30149;SDS011;16962;48.646;9.026;2023-08-31T11:52:04;4.68;;;2.00;;
30149;SDS011;16962;48.646;9.026;2023-08-31T11:54:53;7.18;;;1.77;;
30149;SDS011;16962;48.646;9.026;2023-08-31T11:57:54;4.70;;;2.75;;
30149;SDS011;16962;48.646;9.026;2023-08-31T12:00:43;6.70;;;2.50;;
30149;SDS011;16962;48.646;9.026;2023-08-31T12:03:42;8.48;;;2.15;;
30149;SDS011;16962;48.646;9.026;2023-08-31T12:06:36;7.20;;;2.00;;
30149;SDS011;16962;48.646;9.026;2023-08-31T12:09:24;5.50;;;1.90;;
30149;SDS011;16962;48.646;9.026;2023-08-31T12:12:15;7.90;;;2.17;;
30149;SDS011;16962;48.646;9.026;2023-08-31T12:15:02;4.47;;;1.90;;
30149;SDS011;16962;48.646;9.026;2023-08-31T12:17:53;8.70;;;2.53;;
30149;SDS011;16962;48.646;9.026;2023-08-31T12:20:43;6.00;;;2.10;;
30149;SDS011;16962;48.646;9.026;2023-08-31T12:26:22;8.82;;;2.15;;
30149;SDS011;16962;48.646;9.026;2023-08-31T12:29:13;5.50;;;2.00;;
30149;SDS011;16962;48.646;9.026;2023-08-31T12:32:00;3.85;;;1.85;;
30149;SDS011;16962;48.646;9.026;2023-08-31T12:34:47;6.63;;;2.20;;
30149;SDS011;16962;48.646;9.026;2023-08-31T12:37:35;6.38;;;2.08;;
30149;SDS011;16962;48.646;9.026;2023-08-31T12:40:22;7.78;;;2.20;;
30149;SDS011;16962;48.646;9.026;2023-08-31T12:43:14;4.07;;;1.90;;
30149;SDS011;16962;48.646;9.026;2023-08-31T12:46:03;6.15;;;2.20;;
30149;SDS011;16962;48.646;9.026;2023-08-31T12:48:52;5.05;;;2.00;;
30149;SDS011;16962;48.646;9.026;2023-08-31T12:51:39;5.97;;;2.00;;
30149;SDS011;16962;48.646;9.026;2023-08-31T12:54:26;5.45;;;2.15;;
30149;SDS011;16962;48.646;9.026;2023-08-31T12:57:14;6.55;;;1.83;;
30149;SDS011;16962;48.646;9.026;2023-08-31T13:00:01;5.90;;;1.80;;
30149;SDS011;16962;48.646;9.026;2023-08-31T13:02:53;6.43;;;2.08;;
30149;SDS011;16962;48.646;9.026;2023-08-31T13:05:48;4.93;;;2.13;;
30149;SDS011;16962;48.646;9.026;2023-08-31T13:08:44;2.53;;;1.75;;
30149;SDS011;16962;48.646;9.026;2023-08-31T13:11:41;5.18;;;2.10;;
30149;SDS011;16962;48.646;9.026;2023-08-31T13:14:28;9.35;;;1.92;;
30149;SDS011;16962;48.646;9.026;2023-08-31T13:17:25;7.40;;;2.33;;
30149;SDS011;16962;48.646;9.026;2023-08-31T13:21:00;5.45;;;2.20;;
30149;SDS011;16962;48.646;9.026;2023-08-31T13:24:04;10.57;;;2.40;;
30149;SDS011;16962;48.646;9.026;2023-08-31T13:26:52;5.95;;;2.17;;
30149;SDS011;16962;48.646;9.026;2023-08-31T13:29:39;5.15;;;1.90;;
30149;SDS011;16962;48.646;9.026;2023-08-31T13:32:26;7.63;;;2.20;;
30149;SDS011;16962;48.646;9.026;2023-08-31T13:35:14;5.72;;;2.20;;
30149;SDS011;16962;48.646;9.026;2023-08-31T13:38:02;7.88;;;2.30;;
30149;SDS011;16962;48.646;9.026;2023-08-31T13:40:53;5.18;;;1.85;;
30149;SDS011;16962;48.646;9.026;2023-08-31T13:43:47;4.22;;;1.70;;
30149;SDS011;16962;48.646;9.026;2023-08-31T13:46:34;4.57;;;1.85;;
30149;SDS011;16962;48.646;9.026;2023-08-31T13:53:45;8.60;;;2.53;;
30149;SDS011;16962;48.646;9.026;2023-08-31T13:57:15;9.63;;;2.25;;
30149;SDS011;16962;48.646;9.026;2023-08-31T14:00:04;5.03;;;2.10;;
30149;SDS011;16962;48.646;9.026;2023-08-31T14:02:58;6.28;;;2.28;;
30149;SDS011;16962;48.646;9.026;2023-08-31T14:05:49;9.05;;;2.30;;
30149;SDS011;16962;48.646;9.026;2023-08-31T14:08:36;5.78;;;2.20;;
30149;SDS011;16962;48.646;9.026;2023-08-31T14:11:24;4.55;;;1.90;;
30149;SDS011;16962;48.646;9.026;2023-08-31T14:14:11;4.82;;;1.85;;
30149;SDS011;16962;48.646;9.026;2023-08-31T14:17:09;5.07;;;2.10;;
30149;SDS011;16962;48.646;9.026;2023-08-31T14:20:18;6.78;;;2.30;;
30149;SDS011;16962;48.646;9.026;2023-08-31T14:58:21;3.90;;;2.10;;
30149;SDS011;16962;48.646;9.026;2023-08-31T15:01:10;6.57;;;2.53;;
30149;SDS011;16962;48.646;9.026;2023-08-31T15:20:40;4.95;;;2.58;;
30149;SDS011;16962;48.646;9.026;2023-08-31T15:23:54;6.70;;;2.30;;
30149;SDS011;16962;48.646;9.026;2023-08-31T15:26:42;7.05;;;2.83;;
30149;SDS011;16962;48.646;9.026;2023-08-31T15:29:31;7.32;;;2.47;;
30149;SDS011;16962;48.646;9.026;2023-08-31T15:32:36;6.72;;;2.75;;
30149;SDS011;16962;48.646;9.026;2023-08-31T15:35:51;5.30;;;2.60;;
30149;SDS011;16962;48.646;9.026;2023-08-31T15:38:42;5.32;;;2.22;;
30149;SDS011;16962;48.646;9.026;2023-08-31T15:41:32;5.35;;;2.47;;
30149;SDS011;16962;48.646;9.026;2023-08-31T15:44:23;6.07;;;2.30;;
30149;SDS011;16962;48.646;9.026;2023-08-31T15:47:11;7.95;;;2.55;;
30149;SDS011;16962;48.646;9.026;2023-08-31T15:49:59;9.23;;;2.55;;
30149;SDS011;16962;48.646;9.026;2023-08-31T15:52:49;8.75;;;2.80;;
30149;SDS011;16962;48.646;9.026;2023-08-31T15:55:36;7.03;;;2.58;;
30149;SDS011;16962;48.646;9.026;2023-08-31T15:58:24;9.77;;;3.15;;
30149;SDS011;16962;48.646;9.026;2023-08-31T16:01:16;7.78;;;2.50;;
30149;SDS011;16962;48.646;9.026;2023-08-31T16:04:04;6.22;;;2.40;;
30149;SDS011;16962;48.646;9.026;2023-08-31T16:06:51;5.55;;;2.42;;
30149;SDS011;16962;48.646;9.026;2023-08-31T16:09:41;9.38;;;2.72;;
30149;SDS011;16962;48.646;9.026;2023-08-31T16:12:28;9.30;;;2.53;;
30149;SDS011;16962;48.646;9.026;2023-08-31T16:15:15;6.85;;;3.08;;
30149;SDS011;16962;48.646;9.026;2023-08-31T16:18:03;8.00;;;2.60;;
30149;SDS011;16962;48.646;9.026;2023-08-31T16:20:50;11.98;;;3.47;;
30149;SDS011;16962;48.646;9.026;2023-08-31T16:23:40;6.80;;;2.38;;
30149;SDS011;16962;48.646;9.026;2023-08-31T16:26:30;8.80;;;2.65;;
30149;SDS011;16962;48.646;9.026;2023-08-31T16:29:17;7.38;;;2.80;;
30149;SDS011;16962;48.646;9.026;2023-08-31T16:32:07;8.05;;;2.45;;
30149;SDS011;16962;48.646;9.026;2023-08-31T16:34:54;12.05;;;2.72;;
30149;SDS011;16962;48.646;9.026;2023-08-31T16:37:43;6.38;;;2.63;;
30149;SDS011;16962;48.646;9.026;2023-08-31T16:40:34;7.13;;;2.58;;
30149;SDS011;16962;48.646;9.026;2023-08-31T16:43:24;6.50;;;2.70;;
30149;SDS011;16962;48.646;9.026;2023-08-31T16:46:11;5.75;;;2.47;;
30149;SDS011;16962;48.646;9.026;2023-08-31T16:48:59;7.43;;;2.38;;
30149;SDS011;16962;48.646;9.026;2023-08-31T16:51:56;5.72;;;2.40;;
30149;SDS011;16962;48.646;9.026;2023-08-31T16:59:52;8.40;;;2.83;;
30149;SDS011;16962;48.646;9.026;2023-08-31T17:02:40;8.90;;;3.00;;
30149;SDS011;16962;48.646;9.026;2023-08-31T17:05:28;5.95;;;2.40;;
30149;SDS011;16962;48.646;9.026;2023-08-31T17:08:16;6.95;;;3.10;;
30149;SDS011;16962;48.646;9.026;2023-08-31T17:11:04;10.38;;;3.80;;
30149;SDS011;16962;48.646;9.026;2023-08-31T17:13:57;8.30;;;2.95;;
30149;SDS011;16962;48.646;9.026;2023-08-31T17:16:48;10.05;;;3.58;;
30149;SDS011;16962;48.646;9.026;2023-08-31T17:19:35;10.30;;;3.45;;
30149;SDS011;16962;48.646;9.026;2023-08-31T17:22:25;7.80;;;2.70;;
30149;SDS011;16962;48.646;9.026;2023-08-31T17:25:16;9.68;;;3.03;;
30149;SDS011;16962;48.646;9.026;2023-08-31T17:28:03;6.65;;;3.00;;
30149;SDS011;16962;48.646;9.026;2023-08-31T17:30:56;11.13;;;3.17;;
30149;SDS011;16962;48.646;9.026;2023-08-31T17:33:46;6.32;;;2.70;;
30149;SDS011;16962;48.646;9.026;2023-08-31T17:36:35;9.88;;;3.03;;
30149;SDS011;16962;48.646;9.026;2023-08-31T17:39:23;6.95;;;2.60;;
30149;SDS011;16962;48.646;9.026;2023-08-31T17:42:11;6.50;;;2.55;;
30149;SDS011;16962;48.646;9.026;2023-08-31T17:45:01;7.20;;;2.90;;
30149;SDS011;16962;48.646;9.026;2023-08-31T17:50:41;9.30;;;2.75;;
30149;SDS011;16962;48.646;9.026;2023-08-31T17:53:32;13.55;;;3.20;;
30149;SDS011;16962;48.646;9.026;2023-08-31T17:56:20;8.52;;;3.70;;
30149;SDS011;16962;48.646;9.026;2023-08-31T17:59:11;13.82;;;3.40;;
30149;SDS011;16962;48.646;9.026;2023-08-31T18:02:04;8.63;;;3.45;;
30149;SDS011;16962;48.646;9.026;2023-08-31T18:04:52;7.53;;;3.05;;
30149;SDS011;16962;48.646;9.026;2023-08-31T18:07:42;7.85;;;3.13;;
30149;SDS011;16962;48.646;9.026;2023-08-31T18:10:30;7.45;;;2.70;;
30149;SDS011;16962;48.646;9.026;2023-08-31T18:13:32;10.63;;;2.63;;
30149;SDS011;16962;48.646;9.026;2023-08-31T18:16:22;9.60;;;3.10;;
30149;SDS011;16962;48.646;9.026;2023-08-31T18:19:09;11.10;;;3.55;;
30149;SDS011;16962;48.646;9.026;2023-08-31T18:22:02;11.23;;;4.22;;
30149;SDS011;16962;48.646;9.026;2023-08-31T18:24:54;13.82;;;3.08;;
30149;SDS011;16962;48.646;9.026;2023-08-31T18:27:48;5.15;;;2.90;;
30149;SDS011;16962;48.646;9.026;2023-08-31T18:30:52;7.50;;;3.20;;
30149;SDS011;16962;48.646;9.026;2023-08-31T18:34:29;8.40;;;3.28;;
30149;SDS011;16962;48.646;9.026;2023-08-31T18:37:17;9.82;;;3.50;;
30149;SDS011;16962;48.646;9.026;2023-08-31T18:40:05;10.70;;;3.75;;
30149;SDS011;16962;48.646;9.026;2023-08-31T18:42:55;6.85;;;3.42;;
30149;SDS011;16962;48.646;9.026;2023-08-31T18:45:43;8.25;;;3.75;;
30149;SDS011;16962;48.646;9.026;2023-08-31T18:48:31;10.73;;;3.75;;
30149;SDS011;16962;48.646;9.026;2023-08-31T18:51:18;6.80;;;3.60;;
30149;SDS011;16962;48.646;9.026;2023-08-31T18:54:05;7.20;;;4.03;;
30149;SDS011;16962;48.646;9.026;2023-08-31T18:56:53;9.20;;;3.88;;
30149;SDS011;16962;48.646;9.026;2023-08-31T18:59:40;6.13;;;3.47;;
30149;SDS011;16962;48.646;9.026;2023-08-31T19:02:28;6.45;;;3.22;;
30149;SDS011;16962;48.646;9.026;2023-08-31T19:05:18;8.48;;;3.88;;
30149;SDS011;16962;48.646;9.026;2023-08-31T19:08:07;6.45;;;4.18;;
30149;SDS011;16962;48.646;9.026;2023-08-31T19:10:56;7.78;;;3.67;;
30149;SDS011;16962;48.646;9.026;2023-08-31T19:13:43;7.93;;;3.90;;
30149;SDS011;16962;48.646;9.026;2023-08-31T19:16:36;8.75;;;3.67;;
30149;SDS011;16962;48.646;9.026;2023-08-31T19:19:24;6.32;;;3.72;;
30149;SDS011;16962;48.646;9.026;2023-08-31T19:22:12;7.75;;;4.05;;
30149;SDS011;16962;48.646;9.026;2023-08-31T19:25:01;7.72;;;3.35;;
30149;SDS011;16962;48.646;9.026;2023-08-31T19:27:49;6.50;;;4.07;;
30149;SDS011;16962;48.646;9.026;2023-08-31T19:30:37;14.52;;;4.57;;
30149;SDS011;16962;48.646;9.026;2023-08-31T19:33:27;10.10;;;4.15;;
30149;SDS011;16962;48.646;9.026;2023-08-31T19:36:22;8.55;;;4.30;;
30149;SDS011;16962;48.646;9.026;2023-08-31T19:39:10;9.27;;;4.22;;
30149;SDS011;16962;48.646;9.026;2023-08-31T19:41:59;7.68;;;4.07;;
30149;SDS011;16962;48.646;9.026;2023-08-31T19:44:46;6.80;;;3.70;;
30149;SDS011;16962;48.646;9.026;2023-08-31T19:47:33;8.10;;;4.15;;
30149;SDS011;16962;48.646;9.026;2023-08-31T19:50:23;13.40;;;5.10;;
30149;SDS011;16962;48.646;9.026;2023-08-31T19:53:12;9.65;;;4.32;;
30149;SDS011;16962;48.646;9.026;2023-08-31T19:56:04;13.65;;;4.32;;
30149;SDS011;16962;48.646;9.026;2023-08-31T19:58:54;12.98;;;4.53;;
30149;SDS011;16962;48.646;9.026;2023-08-31T20:01:45;11.20;;;4.43;;
30149;SDS011;16962;48.646;9.026;2023-08-31T20:04:33;10.68;;;4.10;;
30149;SDS011;16962;48.646;9.026;2023-08-31T20:07:20;9.43;;;4.10;;
30149;SDS011;16962;48.646;9.026;2023-08-31T20:10:08;8.45;;;3.97;;
30149;SDS011;16962;48.646;9.026;2023-08-31T20:12:56;10.48;;;4.07;;
30149;SDS011;16962;48.646;9.026;2023-08-31T20:15:43;8.45;;;4.43;;
30149;SDS011;16962;48.646;9.026;2023-08-31T20:18:31;11.02;;;4.32;;
30149;SDS011;16962;48.646;9.026;2023-08-31T20:21:18;10.30;;;4.50;;
30149;SDS011;16962;48.646;9.026;2023-08-31T20:24:06;11.02;;;5.20;;
30149;SDS011;16962;48.646;9.026;2023-08-31T20:26:54;6.82;;;4.15;;
30149;SDS011;16962;48.646;9.026;2023-08-31T20:29:43;8.95;;;4.55;;
30149;SDS011;16962;48.646;9.026;2023-08-31T20:32:30;6.75;;;4.43;;
30149;SDS011;16962;48.646;9.026;2023-08-31T20:35:20;7.43;;;4.13;;
30149;SDS011;16962;48.646;9.026;2023-08-31T20:38:09;12.63;;;4.53;;
30149;SDS011;16962;48.646;9.026;2023-08-31T20:40:59;11.82;;;4.35;;